Time;durP1;ratioP1;P1;durP2;ratioP2;P2;SDS_P1;SDS_P2;PMS_P1;PMS_P2;Temp;Humidity;BMP_temperature;BMP_pressure;BME280_temperature;BME280_humidity;BME280_pressure;Samples;Min_cycle;Max_cycle;Signal;HPM_P1;HPM_P2
2023/04/17 00:00:17;;;;;;;2.60;2.33;;;23.50;62.30;;;;;;4839949;29;20057;-69
2023/04/17 00:02:43;;;;;;;6.25;3.42;;;23.40;62.20;;;;;;4842359;29;20050;-70
2023/04/17 00:05:09;;;;;;;3.58;2.90;;;23.40;62.20;;;;;;4841288;29;20038;-66
2023/04/17 00:07:40;;;;;;;3.17;2.85;;;23.40;62.30;;;;;;4808650;29;20491;-66
2023/04/17 00:10:10;;;;;;;8.60;3.15;;;23.30;62.50;;;;;;4841242;29;20050;-67
2023/04/17 00:12:36;;;;;;;7.78;3.20;;;23.40;62.70;;;;;;4841140;29;20042;-70
2023/04/17 00:15:03;;;;;;;5.32;3.78;;;23.40;62.70;;;;;;4841260;29;20034;-69
2023/04/17 00:17:30;;;;;;;4.63;3.15;;;23.40;62.70;;;;;;4841129;29;20037;-70
2023/04/17 00:19:57;;;;;;;3.72;2.97;;;23.20;62.60;;;;;;4839777;29;20030;-68
2023/04/17 00:22:23;;;;;;;6.35;3.40;;;23.30;62.80;;;;;;4839954;29;20034;-67
2023/04/17 00:24:49;;;;;;;4.03;3.28;;;23.30;62.70;;;;;;4841106;29;20128;-70
2023/04/17 00:27:15;;;;;;;3.40;2.80;;;23.40;62.80;;;;;;4840993;29;20560;-69
2023/04/17 00:29:41;;;;;;;4.72;3.40;;;23.30;62.80;;;;;;4840919;29;20042;-68
2023/04/17 00:32:07;;;;;;;6.88;3.25;;;23.20;62.70;;;;;;4839511;29;20415;-67
2023/04/17 00:34:33;;;;;;;3.42;3.13;;;23.20;62.80;;;;;;4840889;29;20071;-70
2023/04/17 00:36:59;;;;;;;4.82;3.33;;;23.30;62.80;;;;;;4824682;29;20038;-70
2023/04/17 00:39:25;;;;;;;4.10;2.95;;;23.30;62.80;;;;;;4840753;29;20042;-68
2023/04/17 00:41:51;;;;;;;7.20;3.47;;;23.20;62.90;;;;;;4840630;29;20183;-69
2023/04/17 00:44:17;;;;;;;5.30;3.30;;;23.20;62.80;;;;;;4839280;29;20133;-68
2023/04/17 00:46:43;;;;;;;5.72;3.00;;;23.20;62.80;;;;;;4839286;29;20785;-68
2023/04/17 00:49:11;;;;;;;5.32;3.10;;;23.10;62.80;;;;;;4840392;29;20498;-68
2023/04/17 00:51:37;;;;;;;4.28;3.22;;;23.10;62.80;;;;;;4840949;29;20046;-69
2023/04/17 00:54:04;;;;;;;3.97;3.00;;;23.10;62.70;;;;;;4842499;29;20057;-69
2023/04/17 00:56:31;;;;;;;4.38;2.88;;;23.10;62.80;;;;;;4840390;29;20098;-68
2023/04/17 00:58:59;;;;;;;9.35;3.28;;;23.00;62.90;;;;;;4840436;29;20034;-68
2023/04/17 01:01:25;;;;;;;6.18;3.33;;;23.10;63.20;;;;;;4839301;29;20033;-68
2023/04/17 01:03:52;;;;;;;3.70;3.05;;;23.00;63.20;;;;;;4839195;29;20489;-68
2023/04/17 01:06:19;;;;;;;3.45;2.85;;;23.00;63.30;;;;;;4839095;29;20096;-69
2023/04/17 01:08:45;;;;;;;6.78;3.20;;;23.00;63.20;;;;;;4838923;29;20049;-69
2023/04/17 01:11:11;;;;;;;3.80;3.15;;;23.10;63.30;;;;;;4839181;29;20056;-70
2023/04/17 01:13:48;;;;;;;4.55;3.17;;;23.10;63.30;;;;;;4839403;29;20121;-68
2023/04/17 01:16:15;;;;;;;3.72;3.03;;;23.10;63.20;;;;;;4838981;29;20053;-69
2023/04/17 01:18:41;;;;;;;3.78;3.08;;;23.10;63.20;;;;;;4839451;29;20467;-69
2023/04/17 01:21:08;;;;;;;3.97;3.03;;;23.20;63.10;;;;;;4839175;29;20090;-70
2023/04/17 01:23:51;;;;;;;4.93;3.00;;;23.10;63.10;;;;;;4823891;29;20038;-68
2023/04/17 01:26:22;;;;;;;3.75;2.78;;;23.00;62.90;;;;;;4838562;29;20081;-69
2023/04/17 01:28:56;;;;;;;2.80;2.60;;;23.00;62.80;;;;;;4840134;29;20132;-69
2023/04/17 01:31:24;;;;;;;4.80;2.92;;;23.00;62.90;;;;;;4838927;29;20041;-70
2023/04/17 01:33:51;;;;;;;6.18;2.90;;;23.00;62.90;;;;;;4823004;29;20091;-71
2023/04/17 01:36:17;;;;;;;3.70;2.67;;;23.00;63.00;;;;;;4839875;29;20049;-70
2023/04/17 01:38:44;;;;;;;4.97;2.78;;;23.00;63.00;;;;;;4839023;29;20079;-70
2023/04/17 01:41:10;;;;;;;5.35;2.67;;;23.00;63.00;;;;;;4840323;29;20046;-69
2023/04/17 01:43:43;;;;;;;3.67;2.47;;;23.00;62.90;;;;;;4840267;29;20038;-70
2023/04/17 01:46:10;;;;;;;2.92;2.40;;;23.00;62.80;;;;;;4838907;29;20038;-70
2023/04/17 01:48:36;;;;;;;4.07;2.30;;;22.90;62.70;;;;;;4838606;29;20128;-71
2023/04/17 01:51:03;;;;;;;3.85;2.38;;;22.90;62.70;;;;;;4838985;29;20137;-71
2023/04/17 01:53:30;;;;;;;5.50;2.78;;;23.00;62.80;;;;;;4840185;29;20030;-71
2023/04/17 01:55:59;;;;;;;3.75;2.50;;;23.00;62.70;;;;;;4823711;29;20046;-71
2023/04/17 01:58:25;;;;;;;3.35;2.92;;;23.10;62.80;;;;;;4838786;29;20474;-71
2023/04/17 02:00:51;;;;;;;2.70;2.40;;;23.10;62.60;;;;;;4823634;29;20038;-70
2023/04/17 02:03:17;;;;;;;4.70;2.60;;;23.10;62.70;;;;;;4849673;29;20026;-70
2023/04/17 02:05:47;;;;;;;4.55;2.22;;;23.10;62.50;;;;;;4857022;29;20037;-71
2023/04/17 02:08:13;;;;;;;2.85;2.13;;;23.10;62.60;;;;;;4858345;29;20053;-70
2023/04/17 02:10:41;;;;;;;6.53;2.60;;;23.10;62.50;;;;;;4841732;29;20042;-70
2023/04/17 02:13:08;;;;;;;3.10;2.53;;;23.10;62.50;;;;;;4861560;29;20045;-69
2023/04/17 02:15:35;;;;;;;2.67;2.30;;;23.10;62.40;;;;;;4861392;29;20132;-69
2023/04/17 02:18:02;;;;;;;4.07;2.53;;;23.10;62.30;;;;;;4860567;29;20045;-67
2023/04/17 02:20:28;;;;;;;3.38;2.50;;;23.10;62.60;;;;;;4861557;29;20053;-66
2023/04/17 02:22:58;;;;;;;5.82;2.88;;;23.00;62.40;;;;;;4860267;29;20121;-66
2023/04/17 02:25:24;;;;;;;2.47;2.20;;;23.00;62.40;;;;;;4843099;29;20753;-66
2023/04/17 02:27:55;;;;;;;1.75;1.52;;;23.10;62.50;;;;;;4859083;29;20072;-67
2023/04/17 02:30:22;;;;;;;3.92;2.35;;;23.10;62.50;;;;;;4822068;29;20507;-67
2023/04/17 02:32:50;;;;;;;4.00;2.20;;;23.10;62.20;;;;;;4822463;29;20051;-67
2023/04/17 02:35:17;;;;;;;4.15;1.95;;;23.20;61.80;;;;;;4806802;29;20070;-66
2023/04/17 02:37:44;;;;;;;6.03;1.98;;;23.20;61.70;;;;;;4822016;29;20053;-67
2023/04/17 02:40:10;;;;;;;7.40;2.13;;;23.20;61.60;;;;;;4821965;29;20069;-67
2023/04/17 02:42:37;;;;;;;2.03;1.80;;;23.20;61.60;;;;;;4807042;29;20050;-67
2023/04/17 02:45:03;;;;;;;2.97;1.95;;;23.10;61.50;;;;;;4806830;29;20140;-67
2023/04/17 02:47:29;;;;;;;2.75;1.60;;;23.30;61.90;;;;;;4821843;29;20065;-66
2023/04/17 02:49:58;;;;;;;4.47;2.30;;;23.20;61.60;;;;;;4806836;29;20062;-66
2023/04/17 02:52:29;;;;;;;4.57;1.95;;;23.30;61.80;;;;;;4806755;29;20038;-68
2023/04/17 02:54:55;;;;;;;2.22;1.63;;;23.20;61.50;;;;;;4803897;29;20062;-67
2023/04/17 02:57:23;;;;;;;2.20;2.00;;;23.40;61.80;;;;;;4800569;29;20500;-68
2023/04/17 02:59:50;;;;;;;1.45;1.30;;;23.30;61.60;;;;;;4785622;29;20047;-69
2023/04/17 03:02:20;;;;;;;1.77;1.60;;;23.50;61.50;;;;;;4804422;29;20042;-69
2023/04/17 03:04:50;;;;;;;3.13;1.70;;;23.40;61.20;;;;;;4822879;29;20042;-68
2023/04/17 03:07:19;;;;;;;3.63;2.03;;;23.40;61.00;;;;;;4822491;29;20094;-67
2023/04/17 03:09:52;;;;;;;3.10;2.10;;;23.60;61.00;;;;;;4822780;29;20513;-70
2023/04/17 03:12:19;;;;;;;2.35;1.83;;;23.50;61.00;;;;;;4816789;29;20065;-70
2023/04/17 03:14:45;;;;;;;4.63;2.08;;;23.40;61.00;;;;;;4840175;29;20761;-69
2023/04/17 03:17:12;;;;;;;2.88;1.50;;;23.40;61.00;;;;;;4856341;29;20137;-69
2023/04/17 03:19:39;;;;;;;3.90;2.17;;;23.40;61.00;;;;;;4841006;29;20045;-69
2023/04/17 03:22:05;;;;;;;2.28;2.00;;;23.50;61.30;;;;;;4856132;29;20675;-68
2023/04/17 03:24:32;;;;;;;1.58;1.40;;;23.50;61.10;;;;;;4840813;29;20030;-68
2023/04/17 03:27:01;;;;;;;3.97;1.67;;;23.40;61.10;;;;;;4855842;29;20453;-68
2023/04/17 03:29:33;;;;;;;1.35;1.02;;;23.30;61.10;;;;;;4855858;29;20062;-67
2023/04/17 03:31:59;;;;;;;1.52;1.42;;;23.50;61.20;;;;;;4856186;29;20046;-68
2023/04/17 03:34:27;;;;;;;3.28;1.58;;;23.50;61.20;;;;;;4855850;29;20038;-68
2023/04/17 03:36:54;;;;;;;5.63;1.90;;;23.40;61.00;;;;;;4840565;29;20113;-68
2023/04/17 03:39:20;;;;;;;2.05;1.73;;;23.50;61.20;;;;;;4841723;29;20034;-67
2023/04/17 03:41:46;;;;;;;1.42;1.33;;;23.50;61.40;;;;;;4840561;29;20564;-68
2023/04/17 03:44:12;;;;;;;5.97;1.73;;;23.40;61.10;;;;;;4841476;29;20764;-68
2023/04/17 03:46:39;;;;;;;3.53;2.00;;;23.40;61.20;;;;;;4841857;29;20042;-68
2023/04/17 03:49:05;;;;;;;4.15;2.03;;;23.40;61.10;;;;;;4840447;29;20046;-67
2023/04/17 03:51:31;;;;;;;4.75;2.40;;;23.40;61.30;;;;;;4840140;29;20033;-66
2023/04/17 03:54:05;;;;;;;5.65;1.77;;;23.60;61.20;;;;;;4840406;29;20085;-68
2023/04/17 03:56:31;;;;;;;5.53;2.08;;;23.60;60.90;;;;;;4855218;29;20082;-67
2023/04/17 03:58:58;;;;;;;3.15;1.83;;;23.60;61.00;;;;;;4840217;29;20037;-67
2023/04/17 04:01:27;;;;;;;2.05;1.77;;;23.60;61.00;;;;;;4858449;29;20548;-66
2023/04/17 04:04:16;;;;;;;4.07;2.78;;;23.50;60.90;;;;;;4858584;29;20053;-68
2023/04/17 04:06:43;;;;;;;2.47;2.00;;;23.50;57.20;;;;;;4858044;29;20136;-70
2023/04/17 04:09:13;;;;;;;4.10;2.00;;;23.60;56.70;;;;;;4858620;29;20094;-71
2023/04/17 04:11:41;;;;;;;4.55;1.58;;;23.70;55.60;;;;;;4859642;29;20072;-71
2023/04/17 04:14:07;;;;;;;2.83;1.65;;;23.80;54.40;;;;;;4858688;29;20037;-75
2023/04/17 04:16:33;;;;;;;5.22;2.28;;;23.90;61.40;;;;;;4858640;29;20060;-77
2023/04/17 04:19:08;;;;;;;1.88;1.70;;;23.90;65.10;;;;;;4858613;29;20120;-79
2023/04/17 04:21:35;;;;;;;4.25;2.10;;;24.20;60.60;;;;;;4858446;29;20129;-75
2023/04/17 04:24:03;;;;;;;4.28;2.40;;;24.10;57.50;;;;;;4858663;29;20482;-76
2023/04/17 04:26:29;;;;;;;2.45;1.90;;;24.10;56.30;;;;;;4823495;29;20056;-74
2023/04/17 04:28:58;;;;;;;1.75;1.50;;;24.10;55.80;;;;;;4823628;29;20542;-74
2023/04/17 04:31:45;;;;;;;4.75;2.28;;;24.00;56.80;;;;;;4823729;29;20483;-74
2023/04/17 04:34:12;;;;;;;3.80;1.95;;;24.00;56.40;;;;;;4804700;29;20414;-76
2023/04/17 04:36:48;;;;;;;4.50;2.25;;;24.00;55.80;;;;;;4790231;29;20375;-75
2023/04/17 04:39:22;;;;;;;3.70;1.80;;;24.00;55.40;;;;;;4805216;29;20058;-75
2023/04/17 04:41:49;;;;;;;3.63;1.70;;;24.00;55.00;;;;;;4820630;29;20483;-76
2023/04/17 04:44:17;;;;;;;1.63;1.52;;;24.00;54.60;;;;;;4805171;29;20457;-75
2023/04/17 04:46:44;;;;;;;3.10;1.88;;;24.00;54.30;;;;;;4835432;29;20511;-74
2023/04/17 04:49:11;;;;;;;3.08;2.03;;;23.90;53.80;;;;;;4820415;29;20622;-73
2023/04/17 04:51:38;;;;;;;2.38;1.85;;;23.80;53.40;;;;;;4835467;29;20054;-70
2023/04/17 04:54:05;;;;;;;3.03;2.00;;;24.10;53.30;;;;;;4790182;29;20066;-70
2023/04/17 04:56:37;;;;;;;6.90;2.30;;;23.90;53.10;;;;;;4807363;29;20506;-70
2023/04/17 04:59:03;;;;;;;4.03;2.33;;;24.00;52.80;;;;;;4823238;29;20054;-70
2023/04/17 05:01:34;;;;;;;3.00;1.83;;;23.90;52.80;;;;;;4820381;29;20033;-69
2023/04/17 05:04:00;;;;;;;3.97;2.00;;;23.80;52.30;;;;;;4807725;29;20524;-69
2023/04/17 05:06:28;;;;;;;2.53;1.90;;;23.80;51.20;;;;;;4822750;29;20058;-69
2023/04/17 05:08:59;;;;;;;5.15;2.03;;;23.70;50.40;;;;;;4822941;29;20118;-69
2023/04/17 05:11:25;;;;;;;2.15;1.75;;;23.60;50.60;;;;;;4835773;29;20056;-67
2023/04/17 05:13:51;;;;;;;2.65;1.83;;;23.70;52.60;;;;;;4857475;29;20037;-68
2023/04/17 05:16:23;;;;;;;2.72;2.17;;;23.60;52.00;;;;;;4857667;29;20083;-68
2023/04/17 05:18:49;;;;;;;2.00;1.80;;;23.50;50.00;;;;;;4851061;29;20058;-70
2023/04/17 05:21:21;;;;;;;2.92;1.88;;;23.60;50.00;;;;;;4839358;29;20038;-69
2023/04/17 05:23:49;;;;;;;2.25;2.05;;;23.40;51.10;;;;;;4838976;29;20394;-68
2023/04/17 05:26:16;;;;;;;2.38;2.15;;;23.50;50.30;;;;;;4840093;29;20045;-68
2023/04/17 05:28:43;;;;;;;3.47;1.40;;;23.40;50.80;;;;;;4840020;29;20046;-69
2023/04/17 05:31:11;;;;;;;1.90;1.70;;;23.50;58.20;;;;;;4839278;29;20038;-69
2023/04/17 05:33:40;;;;;;;1.55;1.15;;;23.50;61.20;;;;;;4824539;29;20034;-72
2023/04/17 05:36:08;;;;;;;1.98;1.45;;;23.70;61.20;;;;;;4840496;29;20146;-68
2023/04/17 05:38:37;;;;;;;6.47;2.25;;;23.70;63.10;;;;;;4839119;29;20046;-73
2023/04/17 05:41:09;;;;;;;1.83;1.67;;;23.90;62.90;;;;;;4840475;29;20105;-74
2023/04/17 05:43:36;;;;;;;4.35;2.60;;;24.00;61.40;;;;;;4839289;29;20113;-69
2023/04/17 05:46:02;;;;;;;5.55;3.45;;;23.90;63.80;;;;;;4838934;29;20164;-67
2023/04/17 05:48:28;;;;;;;3.40;2.97;;;23.90;57.20;;;;;;4842642;29;20124;-70
2023/04/17 05:50:55;;;;;;;5.38;2.60;;;23.80;58.60;;;;;;4842527;29;20475;-71
2023/04/17 05:53:22;;;;;;;6.38;3.60;;;23.90;58.10;;;;;;4842792;29;20079;-72
2023/04/17 05:55:52;;;;;;;3.83;2.28;;;23.90;58.10;;;;;;4842611;29;20133;-70
2023/04/17 05:58:18;;;;;;;6.90;2.47;;;23.80;57.30;;;;;;4842534;29;20123;-72
2023/04/17 06:00:45;;;;;;;2.97;2.30;;;23.90;56.70;;;;;;4842454;29;20038;-71
2023/04/17 06:03:13;;;;;;;2.08;1.88;;;23.80;56.10;;;;;;4854515;29;20112;-69
2023/04/17 06:05:41;;;;;;;3.58;2.13;;;23.80;56.00;;;;;;4845412;29;20109;-72
2023/04/17 06:08:08;;;;;;;2.95;1.92;;;23.90;55.90;;;;;;4860502;29;20057;-73
2023/04/17 06:10:35;;;;;;;8.02;1.98;;;23.80;55.00;;;;;;4843489;29;20450;-66
2023/04/17 06:13:02;;;;;;;3.92;3.10;;;23.90;56.70;;;;;;4825084;29;20046;-68
2023/04/17 06:15:28;;;;;;;5.57;2.33;;;23.80;55.30;;;;;;4825585;29;20054;-68
2023/04/17 06:17:54;;;;;;;2.25;2.05;;;23.80;55.20;;;;;;4825499;29;20089;-68
2023/04/17 06:20:20;;;;;;;6.60;2.88;;;23.90;55.90;;;;;;4825565;29;20121;-68
2023/04/17 06:22:46;;;;;;;4.00;2.33;;;23.70;56.30;;;;;;4840872;29;20374;-68
2023/04/17 06:25:12;;;;;;;3.85;2.13;;;23.90;57.70;;;;;;4825369;29;20110;-67
2023/04/17 06:27:39;;;;;;;3.00;2.42;;;23.80;57.50;;;;;;4825061;29;20060;-67
2023/04/17 06:30:06;;;;;;;2.38;2.10;;;23.90;57.50;;;;;;4825295;29;20096;-69
2023/04/17 06:32:42;;;;;;;4.35;2.33;;;23.90;57.60;;;;;;4825162;29;20406;-70
2023/04/17 06:35:10;;;;;;;5.97;2.50;;;23.80;56.70;;;;;;4810153;29;20161;-70
2023/04/17 06:37:56;;;;;;;3.15;2.38;;;23.70;55.90;;;;;;4840098;29;20058;-68
2023/04/17 06:40:22;;;;;;;7.18;2.50;;;23.90;55.20;;;;;;4825358;29;20034;-71
2023/04/17 06:42:50;;;;;;;3.75;2.10;;;23.90;54.70;;;;;;4825107;29;20042;-70
2023/04/17 06:45:20;;;;;;;6.55;2.35;;;23.80;54.40;;;;;;4825141;29;20396;-71
2023/04/17 06:47:46;;;;;;;2.92;1.70;;;23.80;54.20;;;;;;4840180;29;20045;-69
2023/04/17 06:50:17;;;;;;;2.47;1.70;;;23.90;54.50;;;;;;4830349;29;20046;-73
2023/04/17 06:52:43;;;;;;;5.70;2.15;;;23.90;54.70;;;;;;4842859;29;20046;-69
2023/04/17 06:55:09;;;;;;;2.13;1.90;;;23.90;54.80;;;;;;4842581;29;20084;-72
2023/04/17 06:57:36;;;;;;;3.65;2.00;;;24.00;55.00;;;;;;4842165;29;20046;-70
2023/04/17 07:00:03;;;;;;;5.68;2.42;;;23.80;55.30;;;;;;4836541;29;20065;-69
2023/04/17 07:02:31;;;;;;;9.45;2.55;;;23.90;55.60;;;;;;4840072;29;20148;-67
2023/04/17 07:04:57;;;;;;;2.75;2.38;;;23.90;55.60;;;;;;4831774;29;20042;-68
2023/04/17 07:07:24;;;;;;;3.75;2.10;;;23.90;55.60;;;;;;4834899;29;20046;-69
2023/04/17 07:09:50;;;;;;;2.50;1.98;;;23.90;55.60;;;;;;4842429;29;20046;-69
2023/04/17 07:12:16;;;;;;;3.13;1.35;;;23.90;55.50;;;;;;4841944;29;20411;-70
2023/04/17 07:14:42;;;;;;;5.20;2.38;;;24.00;55.60;;;;;;4838237;29;20117;-71
2023/04/17 07:17:08;;;;;;;3.90;2.13;;;23.90;55.70;;;;;;4839851;29;20037;-69
2023/04/17 07:19:35;;;;;;;2.58;2.17;;;24.00;55.70;;;;;;4839732;29;20075;-70
2023/04/17 07:22:01;;;;;;;3.25;2.13;;;23.90;55.70;;;;;;4839988;29;20069;-69
2023/04/17 07:24:27;;;;;;;2.65;2.17;;;24.10;56.00;;;;;;4839923;29;20057;-71
2023/04/17 07:26:53;;;;;;;8.70;1.83;;;24.00;55.80;;;;;;4837710;29;20490;-72
2023/04/17 07:29:19;;;;;;;2.90;2.47;;;24.00;56.20;;;;;;4839697;29;20110;-70
2023/04/17 07:31:45;;;;;;;4.28;2.85;;;24.00;55.60;;;;;;4839327;29;20038;-72
2023/04/17 07:34:11;;;;;;;6.80;2.70;;;23.90;55.40;;;;;;4842313;29;20375;-71
2023/04/17 07:36:37;;;;;;;2.83;2.00;;;24.00;54.80;;;;;;4840468;29;20037;-70
2023/04/17 07:39:05;;;;;;;3.85;1.73;;;23.90;55.40;;;;;;4841930;29;20034;-70
2023/04/17 07:41:31;;;;;;;6.60;2.20;;;23.90;55.40;;;;;;4840790;29;20033;-71
2023/04/17 07:43:57;;;;;;;2.30;2.10;;;24.00;55.30;;;;;;4841682;29;20049;-71
2023/04/17 07:46:23;;;;;;;2.10;1.95;;;24.00;55.40;;;;;;4822450;29;20061;-71
2023/04/17 07:48:49;;;;;;;4.38;2.40;;;23.90;55.70;;;;;;4838727;29;20410;-69
2023/04/17 07:51:15;;;;;;;5.07;2.30;;;24.10;55.70;;;;;;4838783;29;20048;-69
2023/04/17 07:53:41;;;;;;;3.25;2.20;;;23.90;55.50;;;;;;4838463;29;20038;-73
2023/04/17 07:56:07;;;;;;;4.55;2.70;;;23.90;55.30;;;;;;4838154;29;20049;-71
2023/04/17 07:58:35;;;;;;;3.75;2.88;;;24.00;55.10;;;;;;4838825;29;20090;-70
2023/04/17 08:01:05;;;;;;;3.63;2.83;;;23.90;55.00;;;;;;4841402;29;20065;-71
2023/04/17 08:03:32;;;;;;;4.15;2.67;;;24.00;54.90;;;;;;4839771;29;20050;-72
2023/04/17 08:05:58;;;;;;;3.55;2.70;;;23.90;55.00;;;;;;4841202;29;20483;-70
2023/04/17 08:08:24;;;;;;;6.22;2.88;;;23.90;55.40;;;;;;4839540;29;20414;-71
2023/04/17 08:10:51;;;;;;;6.10;2.85;;;23.80;56.90;;;;;;4835058;29;20050;-70
2023/04/17 08:13:17;;;;;;;4.78;2.67;;;23.80;58.70;;;;;;4823652;29;20046;-71
2023/04/17 08:15:44;;;;;;;5.32;2.47;;;23.80;57.20;;;;;;4838394;29;20069;-71
2023/04/17 08:18:10;;;;;;;3.05;2.75;;;23.70;57.70;;;;;;4820396;29;20138;-72
2023/04/17 08:20:36;;;;;;;3.08;2.20;;;23.60;58.30;;;;;;4820678;29;20065;-72
2023/04/17 08:23:03;;;;;;;4.00;2.10;;;23.70;60.10;;;;;;4820919;29;20601;-72
2023/04/17 08:25:30;;;;;;;4.30;2.00;;;23.70;61.40;;;;;;4805134;29;20564;-71
2023/04/17 08:27:56;;;;;;;3.35;1.88;;;23.70;61.60;;;;;;4805149;29;20116;-71
2023/04/17 08:30:22;;;;;;;4.20;2.30;;;23.50;60.20;;;;;;4820584;29;20156;-70
2023/04/17 08:32:50;;;;;;;2.83;2.08;;;23.50;58.70;;;;;;4820589;29;20050;-70
2023/04/17 08:35:17;;;;;;;3.53;2.33;;;23.40;59.40;;;;;;4820618;29;20053;-71
2023/04/17 08:37:45;;;;;;;2.60;2.08;;;23.60;59.10;;;;;;4820207;29;20061;-70
2023/04/17 08:40:12;;;;;;;4.65;2.38;;;23.50;59.90;;;;;;4820477;29;20034;-69
2023/04/17 08:42:40;;;;;;;3.00;2.47;;;23.40;59.80;;;;;;4835315;29;20054;-68
2023/04/17 08:45:10;;;;;;;3.88;2.88;;;23.40;59.80;;;;;;4838504;29;20733;-70
2023/04/17 08:47:41;;;;;;;6.43;3.50;;;23.40;57.30;;;;;;4838307;29;20045;-73
2023/04/17 08:50:09;;;;;;;4.00;2.45;;;23.50;56.70;;;;;;4856741;29;20189;-71
2023/04/17 08:52:46;;;;;;;3.00;1.90;;;23.90;57.80;;;;;;4859329;29;20033;-71
2023/04/17 08:55:19;;;;;;;4.75;3.03;;;24.20;57.80;;;;;;4859150;29;20132;-71
2023/04/17 08:58:02;;;;;;;3.25;2.35;;;24.30;62.50;;;;;;4859152;29;20120;-71
2023/04/17 09:00:33;;;;;;;5.60;2.88;;;24.30;53.40;;;;;;4859244;29;20030;-71
2023/04/17 09:03:01;;;;;;;5.90;2.75;;;24.40;53.90;;;;;;4858939;29;20523;-71
2023/04/17 09:05:30;;;;;;;4.40;2.47;;;24.30;54.60;;;;;;4850493;29;20553;-71
2023/04/17 09:08:13;;;;;;;2.88;2.50;;;24.40;52.60;;;;;;4840197;29;20050;-71
2023/04/17 09:10:42;;;;;;;2.70;2.45;;;24.30;51.80;;;;;;4822444;29;20034;-72
2023/04/17 09:13:08;;;;;;;4.18;2.55;;;24.30;54.10;;;;;;4837806;29;20042;-70
2023/04/17 09:15:35;;;;;;;6.18;2.60;;;24.40;52.10;;;;;;4840244;29;20041;-71
2023/04/17 09:18:02;;;;;;;9.65;3.17;;;24.50;57.80;;;;;;4819721;29;20466;-74
2023/04/17 09:20:29;;;;;;;5.45;2.97;;;24.70;61.20;;;;;;4820768;29;20114;-72
2023/04/17 09:23:00;;;;;;;4.10;2.55;;;25.00;54.20;;;;;;4823359;29;20089;-72
2023/04/17 09:25:26;;;;;;;4.25;2.50;;;24.90;52.50;;;;;;4823516;29;20078;-73
2023/04/17 09:27:54;;;;;;;3.72;2.38;;;24.80;53.70;;;;;;4823279;29;20111;-73
2023/04/17 09:30:20;;;;;;;2.45;1.98;;;24.70;55.20;;;;;;4808274;29;20066;-72
2023/04/17 09:32:46;;;;;;;3.30;2.10;;;24.80;53.30;;;;;;4823391;29;20117;-72
2023/04/17 09:35:24;;;;;;;4.03;2.55;;;24.90;52.60;;;;;;4823415;29;20451;-71
2023/04/17 09:37:57;;;;;;;3.83;2.50;;;24.80;50.30;;;;;;4823400;29;20057;-71
2023/04/17 09:40:24;;;;;;;;;;;24.80;50.60;;;;;;4823496;29;20084;-71
2023/04/17 09:43:01;;;;;;;3.15;2.13;;;24.70;50.70;;;;;;4822948;29;19917;-70
2023/04/17 09:45:38;;;;;;;5.68;3.28;;;24.80;52.00;;;;;;4823257;29;20972;-70
2023/04/17 09:48:07;;;;;;;2.72;2.38;;;24.90;50.20;;;;;;4825148;29;20069;-72
2023/04/17 09:50:34;;;;;;;5.65;2.30;;;24.70;49.60;;;;;;4843568;29;20099;-71
2023/04/17 09:53:02;;;;;;;2.78;2.28;;;24.70;47.90;;;;;;4843785;29;20042;-70
2023/04/17 09:55:28;;;;;;;3.38;0.88;;;24.70;47.30;;;;;;4842779;29;20102;-72
2023/04/17 09:57:57;;;;;;;1.13;1.02;;;24.70;55.10;;;;;;4842392;29;20562;-70
2023/04/17 10:00:26;;;;;;;0.85;0.85;;;24.60;55.40;;;;;;4841849;29;20037;-72
2023/04/17 10:02:55;;;;;;;1.95;1.27;;;24.80;54.20;;;;;;4843680;29;20072;-71
2023/04/17 10:05:29;;;;;;;3.33;2.00;;;24.70;53.00;;;;;;4843508;29;20159;-71
2023/04/17 10:07:55;;;;;;;5.65;2.13;;;24.60;51.60;;;;;;4843834;29;20414;-72
2023/04/17 10:10:31;;;;;;;4.55;1.88;;;24.60;50.70;;;;;;4843642;29;20045;-73
2023/04/17 10:13:00;;;;;;;2.10;1.90;;;24.60;50.50;;;;;;4843640;29;20045;-70
2023/04/17 10:15:27;;;;;;;7.70;2.30;;;24.70;51.20;;;;;;4843887;29;20053;-72
2023/04/17 10:17:57;;;;;;;3.20;2.47;;;24.70;50.50;;;;;;4843538;29;20044;-71
2023/04/17 10:20:23;;;;;;;22.00;3.50;;;24.60;52.50;;;;;;4843191;29;20042;-71
2023/04/17 10:22:53;;;;;;;2.53;2.25;;;25.10;54.60;;;;;;4842165;29;20125;-71
2023/04/17 10:25:24;;;;;;;8.45;2.50;;;25.40;51.30;;;;;;4843159;29;20073;-73
2023/04/17 10:28:00;;;;;;;3.35;2.40;;;25.30;51.20;;;;;;4843328;29;20046;-70
2023/04/17 10:30:50;;;;;;;4.25;2.60;;;25.20;48.20;;;;;;4859458;29;20050;-74
2023/04/17 10:33:53;;;;;;;4.18;2.90;;;25.00;49.70;;;;;;4859885;29;20116;-69
2023/04/17 10:36:37;;;;;;;3.17;2.78;;;25.00;46.50;;;;;;4860109;29;20041;-71
2023/04/17 10:39:19;;;;;;;5.30;2.30;;;24.90;46.60;;;;;;4861376;29;20412;-71
2023/04/17 10:42:02;;;;;;;8.10;2.70;;;24.70;46.00;;;;;;4861712;29;20081;-70
2023/04/17 10:44:37;;;;;;;3.78;2.90;;;24.80;46.40;;;;;;4861525;29;20279;-68
2023/04/17 10:47:13;;;;;;;3.67;2.78;;;24.60;45.40;;;;;;4861476;29;20343;-69
2023/04/17 10:49:54;;;;;;;4.10;3.15;;;24.70;46.70;;;;;;4861636;29;20092;-68
2023/04/17 10:52:37;;;;;;;5.80;2.72;;;24.70;48.60;;;;;;4861229;29;20417;-69
2023/04/17 10:55:11;;;;;;;3.15;2.53;;;24.70;48.40;;;;;;4861306;29;20486;-69
2023/04/17 10:58:21;;;;;;;4.90;2.33;;;24.70;46.30;;;;;;4858020;29;20041;-70
2023/04/17 11:00:51;;;;;;;2.80;1.83;;;24.60;48.90;;;;;;4791978;29;20055;-70
2023/04/17 11:03:17;;;;;;;5.10;2.83;;;24.80;55.40;;;;;;4783233;29;20043;-70
2023/04/17 11:05:44;;;;;;;2.33;2.10;;;24.80;54.50;;;;;;4783030;29;20047;-70
2023/04/17 11:08:11;;;;;;;5.43;2.53;;;24.80;53.60;;;;;;4782971;29;20477;-69
2023/04/17 11:10:37;;;;;;;3.13;1.92;;;24.70;54.10;;;;;;4782738;29;20055;-70
2023/04/17 11:13:03;;;;;;;3.08;2.45;;;24.70;54.20;;;;;;4783200;29;20501;-72
2023/04/17 11:15:35;;;;;;;2.28;2.08;;;24.80;54.50;;;;;;4783068;29;20039;-72
2023/04/17 11:18:02;;;;;;;3.40;2.22;;;24.70;54.50;;;;;;4782875;29;20053;-71
2023/04/17 11:20:32;;;;;;;3.03;2.38;;;24.80;54.70;;;;;;4782475;29;20047;-71
2023/04/17 11:23:03;;;;;;;4.43;1.90;;;24.70;54.60;;;;;;4782794;29;20118;-70
2023/04/17 11:25:30;;;;;;;4.63;2.17;;;24.70;54.60;;;;;;4767770;29;20069;-69
2023/04/17 11:27:57;;;;;;;5.32;2.25;;;24.70;54.80;;;;;;4782173;29;20132;-70
2023/04/17 11:30:32;;;;;;;6.43;2.20;;;24.70;55.00;;;;;;4782911;29;20051;-72
2023/04/17 11:33:00;;;;;;;8.68;2.33;;;24.70;55.10;;;;;;4782318;29;20641;-71
2023/04/17 11:35:30;;;;;;;4.60;2.15;;;24.70;55.10;;;;;;4782826;29;20043;-70
2023/04/17 11:38:25;;;;;;;2.65;2.15;;;24.70;55.30;;;;;;4811907;29;20046;-70
2023/04/17 11:40:57;;;;;;;5.03;2.28;;;24.50;55.20;;;;;;4764612;30;20117;-70
2023/04/17 11:43:25;;;;;;;2.63;2.42;;;24.60;55.30;;;;;;4764628;30;20052;-72
2023/04/17 11:46:01;;;;;;;2.55;2.13;;;24.50;55.40;;;;;;4764053;30;20051;-72
2023/04/17 11:48:29;;;;;;;3.38;1.85;;;24.50;55.70;;;;;;4764738;30;20144;-71
2023/04/17 11:51:00;;;;;;;2.03;1.85;;;24.40;55.70;;;;;;4764845;30;20205;-72
2023/04/17 11:53:29;;;;;;;3.47;1.90;;;24.40;55.90;;;;;;4764664;30;20132;-72
2023/04/17 11:56:18;;;;;;;3.97;1.95;;;24.30;56.20;;;;;;4764867;30;20044;-70
2023/04/17 11:58:48;;;;;;;5.80;1.88;;;24.30;56.40;;;;;;4764193;30;20052;-74
2023/04/17 12:01:16;;;;;;;4.63;2.00;;;24.10;56.40;;;;;;4764543;30;20067;-70
2023/04/17 12:03:42;;;;;;;7.65;2.75;;;24.20;56.50;;;;;;4764421;30;20042;-70
2023/04/17 12:06:10;;;;;;;2.60;2.10;;;24.00;56.50;;;;;;4777484;29;20473;-69
2023/04/17 12:08:49;;;;;;;5.25;2.42;;;24.20;56.80;;;;;;4781896;30;20055;-69
2023/04/17 12:11:35;;;;;;;6.05;2.78;;;24.20;56.80;;;;;;4766466;29;20067;-68
2023/04/17 12:14:03;;;;;;;5.68;2.58;;;24.00;56.90;;;;;;4766927;30;20051;-68
2023/04/17 12:16:30;;;;;;;2.85;2.38;;;24.00;57.20;;;;;;4783022;29;20927;-69
2023/04/17 12:18:56;;;;;;;4.13;2.35;;;24.10;57.60;;;;;;4822173;29;20063;-70
2023/04/17 12:21:22;;;;;;;3.92;3.35;;;24.00;57.60;;;;;;4822993;29;20121;-69
2023/04/17 12:23:49;;;;;;;3.33;2.40;;;23.70;57.60;;;;;;4823042;29;20038;-70
2023/04/17 12:26:15;;;;;;;2.53;1.98;;;23.80;57.70;;;;;;4822023;29;20046;-68
2023/04/17 12:28:41;;;;;;;8.07;1.70;;;23.90;58.80;;;;;;4822871;29;20391;-69
2023/04/17 12:31:07;;;;;;;4.50;2.83;;;23.80;59.00;;;;;;4823166;29;20049;-69
2023/04/17 12:33:34;;;;;;;4.00;2.65;;;23.90;58.90;;;;;;4823054;29;20045;-70
2023/04/17 12:36:01;;;;;;;2.80;1.90;;;24.00;58.90;;;;;;4822912;29;20477;-68
2023/04/17 12:38:27;;;;;;;3.70;2.17;;;23.90;58.50;;;;;;4836620;29;20118;-70
2023/04/17 12:40:53;;;;;;;2.20;1.90;;;24.10;58.40;;;;;;4823045;29;20098;-68
2023/04/17 12:43:19;;;;;;;2.40;1.80;;;24.00;57.50;;;;;;4822842;29;20524;-68
2023/04/17 12:45:45;;;;;;;6.15;1.60;;;24.00;57.00;;;;;;4822769;29;20076;-69
2023/04/17 12:48:12;;;;;;;3.60;2.33;;;24.10;57.40;;;;;;4786674;29;20598;-69
2023/04/17 12:50:42;;;;;;;2.97;2.03;;;23.90;57.90;;;;;;4802173;29;20130;-68
2023/04/17 12:53:10;;;;;;;2.38;2.05;;;24.00;57.50;;;;;;4802219;29;20039;-69
2023/04/17 12:55:37;;;;;;;2.70;2.35;;;24.10;56.90;;;;;;4817026;29;20112;-69